createdAt,value
2018-02-03T00:02:27.910Z,15.50
2018-02-03T00:04:56.664Z,14.40
2018-02-03T00:07:25.437Z,14.67
2018-02-03T00:09:54.429Z,12.47
2018-02-03T00:12:24.787Z,14.13
2018-02-03T00:14:56.973Z,13.00
2018-02-03T00:17:27.822Z,14.00
2018-02-03T00:19:56.177Z,14.33
2018-02-03T00:22:24.880Z,14.60
2018-02-03T00:24:54.658Z,12.53
2018-02-03T00:27:22.990Z,11.67
2018-02-03T00:29:51.330Z,13.70
2018-02-03T00:32:21.352Z,12.90
2018-02-03T00:34:49.801Z,11.70
2018-02-03T00:37:19.588Z,8.57
2018-02-03T00:39:49.269Z,10.40
2018-02-03T00:42:18.103Z,11.10
2018-02-03T00:44:46.641Z,10.20
2018-02-03T00:47:15.069Z,9.33
2018-02-03T00:49:45.482Z,11.40
2018-02-03T00:52:14.606Z,10.27
2018-02-03T00:54:44.357Z,10.30
2018-02-03T00:57:12.789Z,10.33
2018-02-03T00:59:41.428Z,10.10
2018-02-03T01:02:10.243Z,9.77
2018-02-03T01:04:40.564Z,10.40
2018-02-03T01:07:10.446Z,9.67
2018-02-03T01:09:38.912Z,8.43
2018-02-03T01:12:07.985Z,8.17
2018-02-03T01:14:36.871Z,8.17
2018-02-03T01:17:06.712Z,7.83
2018-02-03T01:19:35.792Z,9.37
2018-02-03T01:22:04.955Z,8.27
2018-02-03T01:24:35.698Z,9.60
2018-02-03T01:27:06.414Z,11.37
2018-02-03T01:29:35.794Z,10.77
2018-02-03T01:32:04.956Z,9.10
2018-02-03T01:34:33.694Z,10.13
2018-02-03T01:37:03.521Z,9.70
2018-02-03T01:39:33.959Z,9.50
2018-02-03T01:42:02.532Z,9.30
2018-02-03T01:44:32.394Z,9.13
2018-02-03T01:47:01.703Z,8.97
2018-02-03T01:49:31.368Z,9.50
2018-02-03T01:52:00.013Z,9.90
2018-02-03T01:54:28.706Z,9.00
2018-02-03T01:56:58.299Z,11.40
2018-02-03T01:59:27.256Z,9.20
2018-02-03T02:01:55.993Z,8.80
2018-02-03T02:04:24.687Z,7.60
2018-02-03T02:06:55.350Z,7.97
2018-02-03T02:09:23.962Z,7.50
2018-02-03T02:11:52.343Z,7.07
2018-02-03T02:14:21.446Z,6.67
2018-02-03T02:16:50.054Z,6.47
2018-02-03T02:19:19.150Z,8.03
2018-02-03T02:21:47.440Z,5.27
2018-02-03T02:24:15.757Z,5.87
2018-02-03T02:26:44.061Z,5.60
2018-02-03T02:29:12.405Z,6.40
2018-02-03T02:31:40.718Z,5.50
2018-02-03T02:34:09.815Z,5.13
2018-02-03T02:36:38.103Z,5.83
2018-02-03T02:39:06.396Z,5.10
2018-02-03T02:41:34.765Z,5.30
2018-02-03T02:44:03.095Z,4.83
2018-02-03T02:46:32.291Z,5.30
2018-02-03T02:49:01.387Z,5.80
2018-02-03T02:51:30.061Z,5.27
2018-02-03T02:53:58.352Z,5.10
2018-02-03T02:56:26.669Z,4.63
2018-02-03T02:58:55.017Z,3.37
2018-02-03T03:01:23.314Z,4.30
2018-02-03T03:03:51.693Z,4.53
2018-02-03T03:06:20.004Z,3.30
2018-02-03T03:08:48.307Z,3.10
2018-02-03T03:11:16.617Z,3.50
2018-02-03T03:13:45.245Z,3.67
2018-02-03T03:16:13.545Z,2.60
2018-02-03T03:18:41.834Z,2.10
2018-02-03T03:21:10.156Z,2.20
2018-02-03T03:23:38.442Z,2.57
2018-02-03T03:26:06.865Z,3.10
2018-02-03T03:28:35.156Z,3.23
2018-02-03T03:31:03.467Z,2.93
2018-02-03T03:33:32.611Z,2.43
2018-02-03T03:36:00.913Z,1.90
2018-02-03T03:38:29.539Z,2.00
2018-02-03T03:40:57.835Z,3.00
2018-02-03T03:43:26.160Z,3.07
2018-02-03T03:45:54.491Z,3.30
2018-02-03T03:48:23.088Z,3.47
2018-02-03T03:50:51.380Z,3.40
2018-02-03T03:53:19.659Z,3.93
2018-02-03T03:55:47.963Z,4.27
2018-02-03T03:58:16.261Z,5.20
2018-02-03T04:00:44.932Z,4.30
2018-02-03T04:03:13.261Z,5.23
2018-02-03T04:05:41.593Z,5.00
2018-02-03T04:08:09.872Z,4.80
2018-02-03T04:10:38.307Z,4.20
2018-02-03T04:13:06.609Z,3.90
2018-02-03T04:15:34.926Z,4.03
2018-02-03T04:18:03.208Z,4.27
2018-02-03T04:20:31.606Z,4.10
2018-02-03T04:23:00.811Z,3.80
2018-02-03T04:25:29.084Z,4.63
2018-02-03T04:27:57.657Z,3.90
2018-02-03T04:30:25.957Z,3.27
2018-02-03T04:32:54.255Z,4.20
2018-02-03T04:35:22.566Z,4.70
2018-02-03T04:37:51.007Z,4.67
2018-02-03T04:40:19.694Z,3.60
2018-02-03T04:42:48.022Z,4.80
2018-02-03T04:45:16.348Z,4.90
2018-02-03T04:47:45.431Z,4.20
2018-02-03T04:50:13.805Z,4.53
2018-02-03T04:52:42.443Z,4.20
2018-02-03T04:55:11.539Z,4.93
2018-02-03T04:57:39.857Z,4.70
2018-02-03T05:00:08.987Z,5.87
2018-02-03T05:02:37.388Z,4.53
2018-02-03T05:05:05.713Z,5.23
2018-02-03T05:07:34.006Z,4.83
2018-02-03T05:10:02.423Z,5.40
2018-02-03T05:12:31.535Z,5.93
2018-02-03T05:15:00.958Z,5.30
2018-02-03T05:17:30.050Z,4.73
2018-02-03T05:19:58.354Z,5.13
2018-02-03T05:22:27.438Z,6.10
2018-02-03T05:24:55.745Z,4.70
2018-02-03T05:27:25.226Z,5.87
2018-02-03T05:29:53.573Z,6.67
2018-02-03T05:32:21.879Z,6.23
2018-02-03T05:34:50.187Z,6.70
2018-02-03T05:37:18.502Z,6.87
2018-02-03T05:39:46.862Z,6.13
2018-02-03T05:42:15.188Z,4.97
2018-02-03T05:44:45.462Z,5.90
2018-02-03T05:47:13.773Z,6.37
2018-02-03T05:49:42.105Z,8.00
2018-02-03T05:52:10.510Z,9.80
2018-02-03T05:54:38.809Z,7.60
2018-02-03T05:57:08.256Z,6.47
2018-02-03T05:59:37.287Z,7.60
2018-02-03T06:02:05.615Z,7.03
2018-02-03T06:04:34.713Z,7.70
2018-02-03T06:07:03.053Z,7.07
2018-02-03T06:09:31.453Z,5.83
2018-02-03T06:11:59.872Z,6.93
2018-02-03T06:14:28.813Z,7.40
2018-02-03T06:16:57.893Z,7.40
2018-02-03T06:19:26.215Z,7.70
2018-02-03T06:21:55.322Z,6.97
2018-02-03T06:24:24.434Z,6.90
2018-02-03T06:26:53.850Z,6.83
2018-02-03T06:29:22.949Z,7.13
2018-02-03T06:31:52.055Z,6.43
2018-02-03T06:34:21.129Z,6.70
2018-02-03T06:36:49.456Z,5.40
2018-02-03T06:39:17.833Z,6.07
2018-02-03T06:41:46.165Z,6.97
2018-02-03T06:44:14.873Z,6.60
2018-02-03T06:46:43.197Z,6.77
2018-02-03T06:49:11.493Z,7.93
2018-02-03T06:51:39.870Z,6.27
2018-02-03T06:54:08.194Z,5.43
2018-02-03T06:56:36.565Z,5.40
2018-02-03T06:59:04.898Z,6.63
2018-02-03T07:01:33.297Z,7.03
2018-02-03T07:04:01.661Z,5.87
2018-02-03T07:06:29.985Z,6.10
2018-02-03T07:08:58.375Z,5.37
2018-02-03T07:11:26.768Z,6.50
2018-02-03T07:13:55.411Z,4.67
2018-02-03T07:16:23.738Z,4.53
2018-02-03T07:18:52.829Z,4.90
2018-02-03T07:21:21.166Z,5.20
2018-02-03T07:23:49.512Z,4.87
2018-02-03T07:26:17.940Z,5.10
2018-02-03T07:28:46.291Z,6.10
2018-02-03T07:31:14.647Z,7.23
2018-02-03T07:33:42.974Z,5.07
2018-02-03T07:36:11.315Z,4.67
2018-02-03T07:38:39.962Z,5.00
2018-02-03T07:41:08.306Z,4.93
2018-02-03T07:43:36.630Z,5.83
2018-02-03T07:46:04.966Z,6.70
2018-02-03T07:48:33.353Z,5.23
2018-02-03T07:51:02.944Z,5.70
2018-02-03T07:53:31.285Z,5.00
2018-02-03T07:55:59.610Z,5.90
2018-02-03T07:58:28.025Z,6.40
2018-02-03T08:00:56.364Z,6.47
2018-02-03T08:03:25.051Z,5.80
2018-02-03T08:05:53.389Z,5.80
2018-02-03T08:08:21.806Z,5.17
2018-02-03T08:10:50.141Z,6.07
2018-02-03T08:13:18.484Z,6.20
2018-02-03T08:15:47.118Z,6.50
2018-02-03T08:18:15.562Z,6.10
2018-02-03T08:20:43.891Z,6.90
2018-02-03T08:23:13.013Z,6.97
2018-02-03T08:25:41.350Z,6.27
2018-02-03T08:28:10.083Z,5.60
2018-02-03T08:30:39.189Z,5.80
2018-02-03T08:33:08.282Z,4.07
2018-02-03T08:35:36.603Z,4.43
2018-02-03T08:38:05.044Z,4.27
2018-02-03T08:40:33.694Z,4.70
2018-02-03T08:43:02.773Z,4.73
2018-02-03T08:45:31.952Z,4.70
2018-02-03T08:48:00.298Z,3.90
2018-02-03T08:50:29.377Z,3.60
2018-02-03T08:52:57.767Z,4.43
2018-02-03T08:55:26.098Z,3.00
2018-02-03T08:57:54.488Z,3.90
2018-02-03T09:00:22.918Z,4.23
2018-02-03T09:02:51.249Z,3.83
2018-02-03T09:05:19.672Z,3.57
2018-02-03T09:07:48.014Z,3.47
2018-02-03T09:10:16.464Z,4.37
2018-02-03T09:12:44.782Z,4.00
2018-02-03T09:15:13.910Z,3.63
2018-02-03T09:17:42.226Z,3.80
2018-02-03T09:20:11.331Z,4.23
2018-02-03T09:22:40.077Z,4.80
2018-02-03T09:25:08.419Z,3.83
2018-02-03T09:27:36.743Z,5.00
2018-02-03T09:30:05.098Z,5.07
2018-02-03T09:32:33.430Z,4.50
2018-02-03T09:35:02.039Z,3.30
2018-02-03T09:37:30.388Z,4.03
2018-02-03T09:39:59.595Z,2.97
2018-02-03T09:42:28.737Z,3.83
2018-02-03T09:44:57.160Z,4.10
2018-02-03T09:47:25.821Z,3.83
2018-02-03T09:49:54.283Z,4.53
2018-02-03T09:52:22.719Z,4.03
2018-02-03T09:54:51.169Z,4.27
2018-02-03T09:57:19.596Z,3.80
2018-02-03T09:59:48.226Z,3.87
2018-02-03T10:02:16.591Z,3.67
2018-02-03T10:04:44.905Z,3.23
2018-02-03T10:07:14.034Z,3.07
2018-02-03T10:09:42.378Z,4.77
2018-02-03T10:12:10.822Z,3.60
2018-02-03T10:14:39.162Z,3.00
2018-02-03T10:17:07.889Z,3.50
2018-02-03T10:19:36.306Z,3.50
2018-02-03T10:22:04.653Z,3.00
2018-02-03T10:24:32.990Z,3.00
2018-02-03T10:27:01.385Z,2.77
2018-02-03T10:29:29.867Z,2.67
2018-02-03T10:31:58.241Z,3.90
2018-02-03T10:34:26.570Z,3.13
2018-02-03T10:36:54.883Z,3.90
2018-02-03T10:39:23.369Z,3.37
2018-02-03T10:41:52.927Z,4.40
2018-02-03T10:44:21.315Z,3.30
2018-02-03T10:46:49.781Z,4.40
2018-02-03T10:49:18.957Z,4.27
2018-02-03T10:51:47.357Z,4.53
2018-02-03T10:54:15.723Z,3.90
2018-02-03T10:56:44.051Z,5.20
2018-02-03T10:59:12.691Z,4.30
2018-02-03T11:01:41.006Z,3.40
2018-02-03T11:04:09.324Z,4.47
2018-02-03T11:06:37.673Z,4.53
2018-02-03T11:09:06.015Z,4.50
2018-02-03T11:11:34.695Z,4.20
2018-02-03T11:14:03.031Z,4.23
2018-02-03T11:16:31.373Z,4.07
2018-02-03T11:18:59.692Z,4.10
2018-02-03T11:21:28.777Z,5.03
2018-02-03T11:23:57.456Z,4.70
2018-02-03T11:26:25.800Z,4.57
2018-02-03T11:28:54.948Z,4.70
2018-02-03T11:31:23.284Z,3.67
2018-02-03T11:33:51.706Z,4.40
2018-02-03T11:36:20.415Z,4.57
2018-02-03T11:38:48.784Z,5.13
2018-02-03T11:41:17.967Z,3.83
2018-02-03T11:43:46.352Z,3.33
2018-02-03T11:46:14.684Z,4.73
2018-02-03T11:48:43.354Z,3.87
2018-02-03T11:51:12.471Z,3.70
2018-02-03T11:53:40.835Z,4.90
2018-02-03T11:56:09.132Z,4.27
2018-02-03T11:58:37.475Z,4.17
2018-02-03T12:01:05.877Z,4.30
2018-02-03T12:03:34.306Z,4.53
2018-02-03T12:06:02.637Z,3.60
2018-02-03T12:08:30.974Z,4.33
2018-02-03T12:10:59.289Z,4.20
2018-02-03T12:13:28.004Z,4.37
2018-02-03T12:15:57.092Z,4.93
2018-02-03T12:18:26.187Z,4.47
2018-02-03T12:20:54.520Z,4.50
2018-02-03T12:23:23.601Z,5.17
2018-02-03T12:25:52.008Z,6.07
2018-02-03T12:28:20.392Z,5.10
2018-02-03T12:30:48.828Z,5.40
2018-02-03T12:33:17.154Z,5.67
2018-02-03T12:35:45.546Z,4.17
2018-02-03T12:38:13.944Z,5.23
2018-02-03T12:40:42.263Z,5.23
2018-02-03T12:43:11.376Z,4.87
2018-02-03T12:45:39.714Z,4.30
2018-02-03T12:48:08.057Z,5.33
2018-02-03T12:50:37.215Z,6.20
2018-02-03T12:53:05.551Z,5.97
2018-02-03T12:55:33.892Z,4.77
2018-02-03T12:58:02.205Z,4.97
2018-02-03T13:00:30.556Z,4.27
2018-02-03T13:02:59.263Z,3.97
2018-02-03T13:05:27.612Z,4.43
2018-02-03T13:07:55.936Z,4.87
2018-02-03T13:10:24.245Z,4.93
2018-02-03T13:12:52.662Z,4.00
2018-02-03T13:15:21.082Z,3.83
2018-02-03T13:17:50.165Z,4.43
2018-02-03T13:20:18.531Z,4.10
2018-02-03T13:22:46.834Z,4.10
2018-02-03T13:25:15.450Z,4.90
2018-02-03T13:27:43.838Z,4.40
2018-02-03T13:30:12.180Z,4.30
2018-02-03T13:32:40.486Z,5.20
2018-02-03T13:35:08.907Z,4.50
2018-02-03T13:37:37.629Z,4.97
2018-02-03T13:40:06.021Z,4.57
2018-02-03T13:42:34.382Z,6.23
2018-02-03T13:45:03.361Z,4.67
2018-02-03T13:47:31.720Z,5.93
2018-02-03T13:50:00.454Z,5.30
2018-02-03T13:52:28.761Z,5.33
2018-02-03T13:54:57.055Z,5.30
2018-02-03T13:57:25.370Z,5.90
2018-02-03T13:59:53.706Z,6.80
2018-02-03T14:02:22.158Z,7.00
2018-02-03T14:04:50.558Z,6.20
2018-02-03T14:07:19.008Z,6.77
2018-02-03T14:09:47.344Z,5.63
2018-02-03T14:12:15.670Z,6.63
2018-02-03T14:14:44.178Z,6.93
2018-02-03T14:17:12.509Z,5.90
2018-02-03T14:19:40.903Z,6.70
2018-02-03T14:22:09.218Z,6.00
2018-02-03T14:24:44.086Z,5.30
2018-02-03T14:27:12.502Z,6.83
2018-02-03T14:29:40.907Z,6.00
2018-02-03T14:32:09.221Z,6.43
2018-02-03T14:34:37.543Z,5.80
2018-02-03T14:37:05.891Z,6.10
2018-02-03T14:39:34.647Z,4.93
2018-02-03T14:42:02.987Z,5.77
2018-02-03T14:44:31.941Z,6.00
2018-02-03T14:47:00.269Z,5.20
2018-02-03T14:49:28.578Z,5.90
2018-02-03T14:51:57.008Z,5.23
2018-02-03T14:54:25.343Z,6.07
2018-02-03T14:56:53.663Z,5.30
2018-02-03T14:59:22.774Z,5.50
2018-02-03T15:01:51.851Z,5.30
2018-02-03T15:04:20.361Z,5.60
2018-02-03T15:06:48.684Z,6.17
2018-02-03T15:09:17.035Z,6.13
2018-02-03T15:11:45.355Z,5.43
2018-02-03T15:14:14.444Z,5.57
2018-02-03T15:16:42.831Z,5.90
2018-02-03T15:19:11.163Z,5.70
2018-02-03T15:21:39.550Z,5.97
2018-02-03T15:24:07.888Z,6.30
2018-02-03T15:26:36.245Z,6.23
2018-02-03T15:29:04.624Z,6.37
2018-02-03T15:31:33.707Z,6.70
2018-02-03T15:34:02.390Z,7.37
2018-02-03T15:36:30.837Z,6.73
2018-02-03T15:38:59.230Z,7.27
2018-02-03T15:41:27.604Z,11.83
2018-02-03T15:43:55.961Z,7.40
2018-02-03T15:46:24.863Z,7.20
2018-02-03T15:48:54.416Z,6.50
2018-02-03T15:51:23.510Z,6.63
2018-02-03T15:53:52.702Z,6.67
2018-02-03T15:56:22.112Z,7.60
2018-02-03T15:58:50.610Z,6.70
2018-02-03T16:01:18.947Z,6.53
2018-02-03T16:03:47.297Z,7.53
2018-02-03T16:06:15.694Z,7.83
2018-02-03T16:08:44.173Z,6.30
2018-02-03T16:11:12.549Z,7.30
2018-02-03T16:13:40.894Z,6.97
2018-02-03T16:16:09.994Z,6.50
2018-02-03T16:18:38.367Z,6.27
2018-02-03T16:21:06.757Z,6.07
2018-02-03T16:23:35.222Z,6.77
2018-02-03T16:26:03.617Z,6.13
2018-02-03T16:28:32.001Z,5.97
2018-02-03T16:31:00.337Z,6.67
2018-02-03T16:33:28.661Z,7.20
2018-02-03T16:35:57.082Z,7.20
2018-02-03T16:38:25.416Z,7.20
2018-02-03T16:40:53.815Z,6.23
2018-02-03T16:43:22.562Z,6.93
2018-02-03T16:45:51.736Z,6.10
2018-02-03T16:48:20.901Z,7.80
2018-02-03T16:50:50.162Z,6.77
2018-02-03T16:53:18.664Z,6.90
2018-02-03T16:55:47.857Z,7.40
2018-02-03T16:58:17.337Z,7.23
2018-02-03T17:00:46.669Z,7.60
2018-02-03T17:03:15.402Z,6.90
2018-02-03T17:05:43.800Z,7.30
2018-02-03T17:08:12.154Z,7.70
2018-02-03T17:10:40.467Z,7.30
2018-02-03T17:13:09.886Z,7.20
2018-02-03T17:15:39.052Z,7.73
2018-02-03T17:18:07.452Z,7.43
2018-02-03T17:20:35.851Z,7.83
2018-02-03T17:23:04.301Z,8.23
2018-02-03T17:25:33.162Z,8.10
2018-02-03T17:28:02.318Z,8.47
2018-02-03T17:30:31.696Z,8.10
2018-02-03T17:33:00.804Z,6.17
2018-02-03T17:35:29.172Z,8.43
2018-02-03T17:38:03.118Z,8.93
2018-02-03T17:40:31.479Z,8.70
2018-02-03T17:42:59.897Z,8.63
2018-02-03T17:48:32.834Z,9.00
2018-02-03T17:51:02.712Z,8.20
2018-02-03T17:53:31.339Z,8.70
2018-02-03T17:56:07.282Z,6.47
2018-02-03T17:58:37.995Z,6.87
2018-02-03T18:01:06.989Z,7.20
2018-02-03T18:03:36.393Z,6.97
2018-02-03T18:06:05.702Z,10.10
2018-02-03T18:08:36.560Z,8.13
2018-02-03T18:11:05.648Z,9.80
2018-02-03T18:13:34.087Z,7.17
2018-02-03T18:16:03.322Z,7.37
2018-02-03T18:18:32.019Z,6.60
2018-02-03T18:21:01.298Z,9.03
2018-02-03T18:23:30.024Z,8.70
2018-02-03T18:25:59.453Z,8.20
2018-02-03T18:28:28.371Z,7.57
2018-02-03T18:30:57.270Z,7.50
2018-02-03T18:33:25.698Z,6.87
2018-02-03T18:35:55.051Z,8.47
2018-02-03T18:38:25.146Z,9.80
2018-02-03T18:40:53.804Z,8.87
2018-02-03T18:43:22.757Z,9.33
2018-02-03T18:45:51.377Z,8.40
2018-02-03T18:48:19.883Z,7.50
2018-02-03T18:50:48.647Z,6.60
2018-02-03T18:53:17.794Z,7.60
2018-02-03T18:55:46.369Z,5.50
2018-02-03T18:58:16.342Z,6.40
2018-02-03T19:00:45.411Z,6.73
2018-02-03T19:03:15.308Z,7.20
2018-02-03T19:05:44.891Z,7.90
2018-02-03T19:08:13.602Z,6.70
2018-02-03T19:10:42.146Z,5.50
2018-02-03T19:13:11.124Z,6.90
2018-02-03T19:15:39.973Z,6.13
2018-02-03T19:18:08.629Z,6.10
2018-02-03T19:20:37.043Z,5.87
2018-02-03T19:23:05.955Z,5.97
2018-02-03T19:25:36.013Z,5.43
2018-02-03T19:28:05.211Z,6.23
2018-02-03T19:30:35.149Z,6.03
2018-02-03T19:33:03.917Z,5.67
2018-02-03T19:35:32.646Z,5.47
2018-02-03T19:38:01.184Z,5.37
2018-02-03T19:40:30.065Z,5.90
2018-02-03T19:42:59.256Z,6.83
2018-02-03T19:45:28.022Z,7.33
2018-02-03T19:47:57.762Z,7.47
2018-02-03T19:50:27.104Z,7.63
2018-02-03T19:52:57.078Z,6.67
2018-02-03T19:55:26.741Z,6.70
2018-02-03T19:57:55.933Z,7.63
2018-02-03T20:00:25.779Z,5.90
2018-02-03T20:02:55.124Z,7.43
2018-02-03T20:05:24.321Z,8.30
2018-02-03T20:07:53.107Z,7.83
2018-02-03T20:10:22.785Z,7.50
2018-02-03T20:12:52.014Z,7.60
2018-02-03T20:15:20.868Z,8.47
2018-02-03T20:17:49.740Z,7.80
2018-02-03T20:20:18.257Z,10.13
2018-02-03T20:22:47.189Z,10.87
2018-02-03T20:25:16.048Z,8.83
2018-02-03T20:27:45.089Z,10.57
2018-02-03T20:30:13.982Z,8.60
2018-02-03T20:32:42.342Z,8.70
2018-02-03T20:35:11.867Z,9.80
2018-02-03T20:37:40.232Z,8.57
2018-02-03T20:40:09.905Z,8.80
2018-02-03T20:42:39.118Z,9.33
2018-02-03T20:45:08.239Z,10.30
2018-02-03T20:47:36.864Z,8.00
2018-02-03T20:50:06.494Z,9.90
2018-02-03T20:52:35.286Z,9.90
2018-02-03T20:55:04.124Z,8.13
2018-02-03T20:57:32.858Z,10.00
2018-02-03T21:00:02.297Z,9.60
2018-02-03T21:02:30.899Z,11.20
2018-02-03T21:04:59.877Z,10.43
2018-02-03T21:07:29.217Z,9.83
2018-02-03T21:09:58.730Z,10.47
2018-02-03T21:12:28.377Z,10.80
2018-02-03T21:14:57.182Z,11.00
2018-02-03T21:17:26.617Z,10.33
2018-02-03T21:19:55.063Z,9.83
2018-02-03T21:22:23.873Z,9.73
2018-02-03T21:24:52.384Z,12.13
2018-02-03T21:27:21.091Z,10.57
2018-02-03T21:29:50.541Z,9.00
2018-02-03T21:32:19.319Z,10.30
2018-02-03T21:34:47.922Z,10.60
2018-02-03T21:37:17.058Z,10.07
2018-02-03T21:39:46.000Z,10.67
2018-02-03T21:42:15.388Z,9.43
2018-02-03T21:44:44.847Z,8.53
2018-02-03T21:47:13.614Z,9.57
2018-02-03T21:49:42.971Z,9.50
2018-02-03T21:52:11.839Z,8.63
2018-02-03T21:54:41.738Z,11.50
2018-02-03T21:57:10.136Z,11.83
2018-02-03T21:59:39.703Z,10.77
2018-02-03T22:02:08.648Z,9.60
2018-02-03T22:04:37.671Z,11.97
2018-02-03T22:07:08.050Z,10.10
2018-02-03T22:09:36.578Z,9.70
2018-02-03T22:12:06.093Z,10.53
2018-02-03T22:14:36.934Z,9.43
2018-02-03T22:17:11.148Z,10.87
2018-02-03T22:19:39.989Z,11.20
2018-02-03T22:22:10.039Z,10.90
2018-02-03T22:24:40.000Z,11.43
2018-02-03T22:27:12.924Z,13.27
2018-02-03T22:29:41.741Z,11.90
2018-02-03T22:32:10.626Z,10.93
2018-02-03T22:34:40.293Z,12.90
2018-02-03T22:37:10.268Z,12.27
2018-02-03T22:39:39.298Z,14.30
2018-02-03T22:42:08.029Z,12.63
2018-02-03T22:44:37.764Z,13.63
2018-02-03T22:47:08.475Z,12.03
2018-02-03T22:49:37.876Z,12.70
2018-02-03T22:52:07.278Z,15.73
2018-02-03T22:54:35.819Z,14.70
2018-02-03T22:57:05.129Z,16.20
2018-02-03T22:59:33.870Z,12.53
2018-02-03T23:02:02.223Z,17.40
2018-02-03T23:04:30.560Z,17.10
2018-02-03T23:06:58.894Z,16.20
2018-02-03T23:09:27.267Z,20.13
2018-02-03T23:11:56.746Z,17.40
2018-02-03T23:14:25.107Z,24.60
2018-02-03T23:16:53.445Z,30.50
2018-02-03T23:19:21.891Z,31.93
2018-02-03T23:21:50.235Z,32.27
2018-02-03T23:24:18.647Z,44.10
2018-02-03T23:26:47.019Z,34.27
2018-02-03T23:29:16.156Z,35.10
2018-02-03T23:31:44.555Z,24.50
2018-02-03T23:34:12.894Z,26.67
2018-02-03T23:36:41.290Z,23.70
2018-02-03T23:39:09.687Z,18.50
2018-02-03T23:41:38.092Z,19.10
2018-02-03T23:44:07.176Z,15.40
2018-02-03T23:46:35.823Z,16.57
2018-02-03T23:49:04.191Z,18.47
2018-02-03T23:51:33.304Z,14.70
2018-02-03T23:54:02.505Z,11.80
2018-02-03T23:56:31.639Z,11.40
2018-02-03T23:59:00.417Z,3.70
